createdAt,value
2019-05-18T00:00:38.537Z,97.40
2019-05-18T00:03:05.152Z,97.40
2019-05-18T00:05:31.668Z,97.20
2019-05-18T00:07:58.129Z,96.60
2019-05-18T00:10:24.527Z,97.00
2019-05-18T00:12:51.060Z,97.00
2019-05-18T00:15:17.656Z,96.90
2019-05-18T00:17:44.056Z,96.90
2019-05-18T00:20:10.747Z,96.50
2019-05-18T00:22:37.440Z,96.20
2019-05-18T00:25:05.230Z,96.30
2019-05-18T00:27:31.643Z,96.30
2019-05-18T00:29:58.236Z,96.50
2019-05-18T00:32:24.653Z,96.80
2019-05-18T00:34:51.068Z,97.50
2019-05-18T00:37:17.565Z,96.70
2019-05-18T00:39:44.018Z,97.30
2019-05-18T00:42:10.413Z,97.60
2019-05-18T00:44:36.793Z,97.80
2019-05-18T00:47:03.191Z,98.10
2019-05-18T00:49:30.869Z,98.10
2019-05-18T00:51:57.241Z,98.10
2019-05-18T00:54:23.706Z,98.10
2019-05-18T00:56:50.201Z,98.00
2019-05-18T00:59:16.740Z,98.10
2019-05-18T01:01:43.333Z,97.90
2019-05-18T01:04:09.748Z,97.90
2019-05-18T01:06:36.136Z,98.00
2019-05-18T01:09:05.065Z,97.80
2019-05-18T01:11:31.453Z,97.90
2019-05-18T01:13:58.138Z,98.10
2019-05-18T01:16:24.538Z,98.10
2019-05-18T01:18:51.062Z,98.30
2019-05-18T01:21:17.664Z,98.00
2019-05-18T01:23:44.089Z,97.90
2019-05-18T01:26:11.676Z,97.80
2019-05-18T01:28:38.090Z,97.90
2019-05-18T01:31:04.574Z,97.80
2019-05-18T01:33:31.040Z,97.90
2019-05-18T01:35:57.756Z,97.90
2019-05-18T01:38:24.400Z,98.10
2019-05-18T01:40:50.815Z,97.90
2019-05-18T01:43:18.977Z,97.70
2019-05-18T01:45:45.378Z,97.70
2019-05-18T01:48:14.408Z,98.00
2019-05-18T01:50:40.051Z,98.30
2019-05-18T01:53:06.541Z,98.60
2019-05-18T01:55:32.946Z,99.00
2019-05-18T01:57:59.438Z,99.70
2019-05-18T02:00:26.098Z,99.30
2019-05-18T02:02:52.604Z,99.00
2019-05-18T02:05:19.066Z,99.00
2019-05-18T02:07:45.685Z,98.80
2019-05-18T02:10:12.504Z,99.00
2019-05-18T02:12:38.884Z,98.90
2019-05-18T02:15:07.190Z,99.30
2019-05-18T02:17:33.685Z,99.40
2019-05-18T02:20:00.332Z,99.60
2019-05-18T02:22:26.732Z,99.90
2019-05-18T02:24:53.130Z,99.90
2019-05-18T02:27:19.650Z,99.80
2019-05-18T02:29:46.168Z,99.70
2019-05-18T02:32:12.667Z,99.90
2019-05-18T02:34:39.164Z,99.90
2019-05-18T02:37:05.555Z,99.60
2019-05-18T02:39:31.947Z,99.90
2019-05-18T02:41:58.909Z,99.90
2019-05-18T02:44:26.681Z,99.80
2019-05-18T02:46:53.189Z,99.90
2019-05-18T02:49:19.765Z,99.60
2019-05-18T02:51:46.182Z,99.50
2019-05-18T02:54:12.587Z,99.80
2019-05-18T02:56:39.120Z,99.90
2019-05-18T02:59:05.554Z,99.90
2019-05-18T03:01:32.053Z,99.90
2019-05-18T03:03:58.470Z,99.90
2019-05-18T03:06:24.970Z,99.90
2019-05-18T03:08:51.779Z,99.90
2019-05-18T03:11:18.366Z,99.90
2019-05-18T03:13:44.958Z,99.90
2019-05-18T03:16:11.533Z,99.90
2019-05-18T03:18:38.125Z,99.90
2019-05-18T03:21:04.620Z,99.90
2019-05-18T03:23:31.119Z,99.90
2019-05-18T03:25:57.632Z,99.90
2019-05-18T03:28:24.108Z,99.90
2019-05-18T03:30:50.540Z,99.90
2019-05-18T03:33:17.002Z,99.90
2019-05-18T03:35:43.724Z,99.90
2019-05-18T03:38:10.223Z,99.90
2019-05-18T03:40:36.746Z,99.90
2019-05-18T03:43:03.241Z,99.90
2019-05-18T03:45:29.944Z,99.90
2019-05-18T03:47:56.817Z,99.90
2019-05-18T03:50:23.215Z,99.90
2019-05-18T03:52:49.672Z,99.90
2019-05-18T03:55:16.089Z,99.80
2019-05-18T03:57:42.543Z,99.50
2019-05-18T04:00:10.639Z,99.50
2019-05-18T04:02:37.300Z,99.50
2019-05-18T04:05:05.836Z,99.90
2019-05-18T04:07:32.398Z,99.90
2019-05-18T04:09:59.094Z,99.70
2019-05-18T04:12:25.633Z,99.50
2019-05-18T04:14:52.042Z,99.20
2019-05-18T04:17:18.635Z,98.90
2019-05-18T04:19:47.281Z,98.80
2019-05-18T04:22:13.527Z,99.20
2019-05-18T04:24:39.925Z,99.20
2019-05-18T04:27:06.445Z,98.80
2019-05-18T04:29:32.809Z,98.60
2019-05-18T04:31:59.447Z,98.30
2019-05-18T04:34:25.832Z,97.90
2019-05-18T04:36:52.296Z,97.60
2019-05-18T04:39:18.768Z,97.30
2019-05-18T04:41:45.193Z,97.50
2019-05-18T04:44:11.576Z,97.30
2019-05-18T04:46:38.061Z,97.20
2019-05-18T04:49:04.458Z,96.90
2019-05-18T04:51:30.877Z,96.70
2019-05-18T04:53:57.645Z,96.70
2019-05-18T04:56:24.148Z,97.10
2019-05-18T04:58:50.657Z,97.10
2019-05-18T05:01:17.044Z,96.70
2019-05-18T05:03:43.504Z,96.00
2019-05-18T05:06:09.916Z,95.60
2019-05-18T05:08:36.396Z,94.40
2019-05-18T05:11:03.028Z,94.50
2019-05-18T05:13:29.526Z,94.10
2019-05-18T05:15:56.250Z,93.60
2019-05-18T05:18:22.762Z,90.20
2019-05-18T05:20:49.156Z,84.80
2019-05-18T05:23:15.645Z,81.30
2019-05-18T05:25:42.164Z,77.00
2019-05-18T05:28:08.694Z,73.50
2019-05-18T05:30:35.084Z,70.70
2019-05-18T05:33:01.494Z,67.90
2019-05-18T05:35:27.963Z,66.30
2019-05-18T05:37:54.451Z,64.30
2019-05-18T05:40:20.836Z,62.80
2019-05-18T05:42:47.252Z,60.60
2019-05-18T05:45:14.228Z,59.00
2019-05-18T05:47:40.652Z,57.40
2019-05-18T05:50:07.546Z,57.10
2019-05-18T05:52:34.140Z,56.20
2019-05-18T05:55:00.566Z,56.10
2019-05-18T05:57:26.986Z,56.40
2019-05-18T05:59:53.413Z,57.40
2019-05-18T06:02:19.844Z,60.00
2019-05-18T06:04:46.275Z,58.30
2019-05-18T06:07:12.778Z,57.20
2019-05-18T06:09:39.496Z,55.30
2019-05-18T06:12:06.007Z,54.20
2019-05-18T06:14:32.506Z,54.40
2019-05-18T06:16:58.917Z,54.00
2019-05-18T06:19:25.321Z,52.80
2019-05-18T06:21:51.711Z,52.40
2019-05-18T06:24:18.128Z,52.70
2019-05-18T06:26:44.555Z,53.00
2019-05-18T06:29:11.086Z,53.60
2019-05-18T06:31:37.477Z,53.60
2019-05-18T06:34:03.947Z,53.80
2019-05-18T06:36:31.597Z,53.20
2019-05-18T06:38:58.193Z,52.60
2019-05-18T06:41:24.568Z,53.40
2019-05-18T06:43:51.172Z,52.70
2019-05-18T06:46:17.787Z,50.70
2019-05-18T06:48:44.299Z,50.90
2019-05-18T06:51:10.722Z,50.40
2019-05-18T06:53:37.201Z,50.50
2019-05-18T06:56:03.829Z,49.30
2019-05-18T06:58:31.126Z,48.80
2019-05-18T07:00:57.744Z,47.40
2019-05-18T07:03:25.259Z,48.60
2019-05-18T07:05:52.525Z,47.70
2019-05-18T07:08:18.938Z,46.80
2019-05-18T07:10:45.481Z,46.30
2019-05-18T07:13:11.884Z,44.20
2019-05-18T07:15:38.395Z,43.90
2019-05-18T07:18:04.893Z,43.60
2019-05-18T07:20:32.400Z,43.90
2019-05-18T07:22:58.795Z,42.00
2019-05-18T07:25:25.230Z,41.00
2019-05-18T07:27:51.663Z,39.70
2019-05-18T07:30:18.767Z,40.20
2019-05-18T07:32:45.187Z,39.80
2019-05-18T07:35:12.579Z,39.00
2019-05-18T07:37:39.251Z,40.10
2019-05-18T07:40:06.266Z,39.60
2019-05-18T07:42:32.633Z,40.30
2019-05-18T07:44:59.405Z,40.70
2019-05-18T07:47:25.878Z,40.70
2019-05-18T07:49:54.238Z,38.90
2019-05-18T07:52:20.618Z,38.70
2019-05-18T07:54:47.214Z,37.30
2019-05-18T07:57:13.711Z,36.30
2019-05-18T07:59:40.241Z,37.10
2019-05-18T08:02:06.662Z,36.70
2019-05-18T08:04:33.112Z,36.50
2019-05-18T08:06:59.690Z,35.30
2019-05-18T08:09:26.129Z,34.70
2019-05-18T08:11:52.628Z,35.60
2019-05-18T08:14:19.153Z,34.50
2019-05-18T08:16:45.536Z,34.30
2019-05-18T08:19:12.078Z,34.00
2019-05-18T08:21:52.298Z,32.80
2019-05-18T08:24:07.883Z,33.00
2019-05-18T08:26:34.500Z,34.50
2019-05-18T08:29:01.090Z,34.00
2019-05-18T08:31:27.599Z,35.00
2019-05-18T08:33:54.041Z,35.30
2019-05-18T08:36:21.529Z,34.40
2019-05-18T08:38:47.936Z,34.40
2019-05-18T08:41:14.620Z,33.70
2019-05-18T08:43:41.114Z,36.10
2019-05-18T08:46:07.500Z,35.00
2019-05-18T08:48:33.876Z,35.30
2019-05-18T08:51:00.728Z,34.00
2019-05-18T08:53:27.117Z,32.40
2019-05-18T08:55:53.519Z,33.00
2019-05-18T08:58:21.018Z,33.60
2019-05-18T09:00:47.421Z,34.50
2019-05-18T09:03:13.851Z,34.30
2019-05-18T09:05:40.570Z,34.40
2019-05-18T09:08:06.972Z,33.50
2019-05-18T09:10:33.687Z,32.00
2019-05-18T09:13:00.258Z,32.60
2019-05-18T09:15:26.835Z,32.50
2019-05-18T09:17:53.243Z,32.50
2019-05-18T09:20:19.959Z,32.70
2019-05-18T09:22:46.459Z,32.80
2019-05-18T09:25:13.036Z,32.60
2019-05-18T09:27:39.415Z,33.80
2019-05-18T09:30:07.044Z,33.10
2019-05-18T09:32:34.540Z,34.30
2019-05-18T09:35:00.953Z,33.70
2019-05-18T09:37:27.447Z,32.50
2019-05-18T09:39:54.024Z,32.20
2019-05-18T09:42:20.460Z,34.40
2019-05-18T09:44:47.054Z,34.00
2019-05-18T09:47:13.666Z,34.10
2019-05-18T09:49:40.173Z,34.00
2019-05-18T09:52:06.780Z,36.00
2019-05-18T09:54:33.274Z,34.90
2019-05-18T09:56:59.730Z,36.70
2019-05-18T09:59:26.153Z,38.70
2019-05-18T10:01:53.686Z,40.30
2019-05-18T10:04:20.190Z,39.40
2019-05-18T10:06:46.606Z,37.00
2019-05-18T10:09:13.018Z,39.10
2019-05-18T10:11:39.418Z,41.30
2019-05-18T10:14:06.035Z,42.40
2019-05-18T10:16:33.505Z,42.40
2019-05-18T10:19:02.997Z,41.30
2019-05-18T10:21:29.474Z,38.70
2019-05-18T10:23:56.098Z,37.60
2019-05-18T10:26:22.760Z,38.10
2019-05-18T10:28:49.248Z,37.80
2019-05-18T10:31:15.682Z,36.70
2019-05-18T10:33:42.206Z,37.60
2019-05-18T10:36:11.528Z,39.10
2019-05-18T10:38:37.021Z,36.00
2019-05-18T10:41:03.471Z,34.10
2019-05-18T10:43:30.037Z,35.00
2019-05-18T10:45:56.769Z,37.40
2019-05-18T10:48:23.176Z,38.40
2019-05-18T10:50:49.561Z,38.80
2019-05-18T10:53:27.776Z,37.30
2019-05-18T10:55:44.404Z,37.80
2019-05-18T10:58:11.046Z,37.30
2019-05-18T11:00:37.621Z,35.10
2019-05-18T11:03:04.350Z,35.40
2019-05-18T11:05:30.888Z,38.60
2019-05-18T11:07:57.502Z,40.90
2019-05-18T11:10:24.249Z,41.10
2019-05-18T11:12:50.778Z,41.50
2019-05-18T11:15:18.070Z,42.80
2019-05-18T11:17:44.587Z,43.30
2019-05-18T11:20:12.091Z,44.20
2019-05-18T11:22:38.695Z,44.90
2019-05-18T11:25:06.394Z,44.80
2019-05-18T11:27:32.998Z,45.10
2019-05-18T11:29:59.531Z,45.30
2019-05-18T11:32:25.932Z,44.20
2019-05-18T11:34:52.487Z,43.30
2019-05-18T11:37:19.078Z,42.90
2019-05-18T11:39:45.513Z,43.20
2019-05-18T11:42:12.119Z,43.20
2019-05-18T11:44:38.736Z,42.50
2019-05-18T11:47:05.158Z,42.40
2019-05-18T11:49:31.732Z,42.10
2019-05-18T11:51:59.254Z,41.70
2019-05-18T11:54:26.301Z,41.40
2019-05-18T11:56:52.968Z,41.40
2019-05-18T11:59:19.463Z,41.30
2019-05-18T12:01:46.012Z,41.00
2019-05-18T12:04:12.492Z,40.10
2019-05-18T12:06:39.112Z,39.60
2019-05-18T12:09:05.840Z,38.50
2019-05-18T12:11:32.462Z,38.50
2019-05-18T12:13:58.898Z,37.00
2019-05-18T12:16:25.353Z,37.10
2019-05-18T12:18:52.936Z,36.10
2019-05-18T12:21:19.447Z,36.30
2019-05-18T12:23:45.896Z,35.20
2019-05-18T12:26:12.421Z,34.80
2019-05-18T12:28:39.026Z,33.80
2019-05-18T12:31:05.723Z,32.30
2019-05-18T12:33:32.141Z,31.70
2019-05-18T12:35:58.673Z,30.50
2019-05-18T12:38:25.358Z,32.40
2019-05-18T12:40:52.649Z,30.40
2019-05-18T12:43:19.106Z,30.20
2019-05-18T12:45:45.608Z,30.70
2019-05-18T12:48:12.108Z,30.10
2019-05-18T12:50:38.683Z,29.50
2019-05-18T12:53:05.280Z,31.40
2019-05-18T12:55:31.835Z,31.70
2019-05-18T12:57:58.421Z,32.20
2019-05-18T13:00:25.026Z,32.90
2019-05-18T13:02:51.613Z,32.00
2019-05-18T13:05:18.619Z,31.80
2019-05-18T13:07:45.036Z,31.40
2019-05-18T13:10:12.541Z,31.30
2019-05-18T13:12:39.065Z,30.50
2019-05-18T13:15:09.503Z,29.40
2019-05-18T13:17:36.250Z,27.40
2019-05-18T13:20:08.310Z,28.10
2019-05-18T13:22:34.745Z,28.80
2019-05-18T13:25:01.159Z,28.10
2019-05-18T13:27:38.833Z,28.90
2019-05-18T13:29:56.451Z,28.60
2019-05-18T13:32:22.918Z,29.40
2019-05-18T13:34:49.450Z,29.80
2019-05-18T13:37:15.854Z,29.40
2019-05-18T13:39:42.278Z,29.50
2019-05-18T13:42:08.671Z,29.10
2019-05-18T13:44:38.009Z,29.10
2019-05-18T13:47:03.365Z,29.20
2019-05-18T13:49:29.762Z,29.20
2019-05-18T13:51:56.203Z,30.10
2019-05-18T13:54:22.886Z,30.40
2019-05-18T13:56:49.290Z,30.20
2019-05-18T13:59:15.777Z,30.80
2019-05-18T14:01:42.184Z,31.50
2019-05-18T14:04:08.802Z,30.70
2019-05-18T14:06:35.255Z,30.40
2019-05-18T14:09:01.685Z,30.90
2019-05-18T14:11:29.414Z,30.80
2019-05-18T14:13:55.850Z,30.40
2019-05-18T14:16:22.373Z,30.40
2019-05-18T14:18:48.866Z,30.20
2019-05-18T14:21:15.257Z,29.80
2019-05-18T14:23:41.860Z,31.50
2019-05-18T14:26:11.288Z,31.00
2019-05-18T14:28:37.665Z,31.60
2019-05-18T14:31:04.074Z,31.50
2019-05-18T14:33:30.687Z,31.80
2019-05-18T14:35:57.194Z,33.00
2019-05-18T14:38:23.712Z,32.40
2019-05-18T14:40:50.164Z,33.40
2019-05-18T14:43:16.773Z,32.20
2019-05-18T14:45:43.260Z,33.00
2019-05-18T14:48:09.675Z,33.30
2019-05-18T14:50:36.211Z,33.60
2019-05-18T14:53:02.826Z,32.50
2019-05-18T14:55:33.578Z,33.20
2019-05-18T14:57:58.902Z,33.50
2019-05-18T15:00:25.578Z,33.70
2019-05-18T15:02:52.080Z,34.20
2019-05-18T15:05:19.779Z,34.70
2019-05-18T15:07:46.269Z,34.90
2019-05-18T15:10:13.288Z,34.20
2019-05-18T15:12:39.710Z,35.30
2019-05-18T15:15:07.505Z,35.00
2019-05-18T15:17:35.285Z,34.70
2019-05-18T15:20:02.614Z,34.20
2019-05-18T15:22:29.221Z,34.50
2019-05-18T15:24:55.627Z,35.30
2019-05-18T15:27:22.238Z,36.80
2019-05-18T15:29:48.631Z,35.20
2019-05-18T15:32:15.423Z,35.40
2019-05-18T15:34:41.979Z,35.30
2019-05-18T15:37:08.445Z,35.40
2019-05-18T15:39:34.886Z,35.70
2019-05-18T15:42:01.505Z,35.70
2019-05-18T15:44:29.152Z,35.40
2019-05-18T15:46:55.648Z,36.00
2019-05-18T15:49:22.162Z,36.90
2019-05-18T15:51:48.557Z,36.00
2019-05-18T15:54:16.144Z,35.70
2019-05-18T15:56:44.289Z,35.20
2019-05-18T15:59:10.905Z,35.80
2019-05-18T16:01:37.409Z,36.80
2019-05-18T16:04:06.474Z,37.10
2019-05-18T16:06:32.171Z,37.70
2019-05-18T16:08:58.723Z,36.80
2019-05-18T16:11:25.328Z,36.80
2019-05-18T16:13:51.846Z,36.70
2019-05-18T16:16:18.237Z,37.30
2019-05-18T16:18:44.633Z,38.00
2019-05-18T16:21:11.044Z,38.00
2019-05-18T16:23:37.417Z,37.90
2019-05-18T16:26:03.959Z,38.40
2019-05-18T16:28:30.363Z,38.20
2019-05-18T16:30:57.020Z,38.40
2019-05-18T16:33:23.838Z,38.10
2019-05-18T16:35:50.418Z,38.30
2019-05-18T16:38:17.059Z,38.70
2019-05-18T16:40:43.554Z,38.10
2019-05-18T16:43:10.207Z,38.70
2019-05-18T16:45:36.733Z,38.70
2019-05-18T16:48:03.222Z,38.80
2019-05-18T16:50:29.853Z,38.80
2019-05-18T16:52:56.262Z,39.10
2019-05-18T16:55:24.291Z,39.00
2019-05-18T16:57:50.699Z,39.60
2019-05-18T17:00:17.735Z,40.30
2019-05-18T17:02:44.323Z,40.10
2019-05-18T17:05:12.595Z,40.00
2019-05-18T17:07:39.242Z,39.40
2019-05-18T17:10:06.359Z,39.30
2019-05-18T17:12:32.756Z,39.60
2019-05-18T17:14:59.186Z,40.30
2019-05-18T17:17:25.679Z,40.70
2019-05-18T17:19:52.215Z,41.00
2019-05-18T17:22:18.697Z,41.60
2019-05-18T17:24:45.179Z,41.30
2019-05-18T17:27:11.727Z,41.60
2019-05-18T17:29:38.194Z,41.70
2019-05-18T17:32:04.676Z,42.20
2019-05-18T17:34:31.218Z,42.00
2019-05-18T17:36:57.765Z,42.40
2019-05-18T17:39:24.293Z,42.70
2019-05-18T17:41:50.959Z,43.00
2019-05-18T17:44:17.449Z,42.90
2019-05-18T17:46:44.608Z,43.00
2019-05-18T17:49:25.896Z,43.30
2019-05-18T17:51:39.522Z,43.60
2019-05-18T17:54:05.914Z,43.30
2019-05-18T17:56:32.479Z,43.40
2019-05-18T17:58:58.958Z,43.90
2019-05-18T18:01:25.759Z,44.30
2019-05-18T18:03:53.341Z,44.40
2019-05-18T18:06:19.879Z,45.00
2019-05-18T18:08:46.356Z,45.60
2019-05-18T18:11:12.775Z,45.60
2019-05-18T18:13:39.185Z,46.20
2019-05-18T18:16:05.782Z,46.80
2019-05-18T18:18:34.875Z,47.30
2019-05-18T18:21:00.747Z,47.60
2019-05-18T18:23:27.250Z,48.20
2019-05-18T18:25:54.814Z,48.60
2019-05-18T18:28:21.298Z,49.30
2019-05-18T18:30:47.689Z,49.30
2019-05-18T18:33:14.218Z,49.40
2019-05-18T18:35:41.033Z,50.20
2019-05-18T18:38:07.571Z,50.90
2019-05-18T18:40:34.206Z,51.20
2019-05-18T18:43:00.611Z,51.50
2019-05-18T18:45:27.361Z,52.10
2019-05-18T18:47:53.957Z,52.50
2019-05-18T18:50:20.458Z,53.40
2019-05-18T18:52:47.056Z,54.20
2019-05-18T18:55:13.488Z,54.80
2019-05-18T18:57:41.896Z,55.50
2019-05-18T19:00:10.622Z,56.50
2019-05-18T19:02:37.288Z,56.40
2019-05-18T19:05:05.195Z,56.70
2019-05-18T19:07:31.776Z,57.60
2019-05-18T19:09:58.431Z,58.10
2019-05-18T19:12:26.003Z,58.60
2019-05-18T19:14:52.431Z,59.50
2019-05-18T19:17:18.930Z,59.60
2019-05-18T19:19:45.341Z,60.70
2019-05-18T19:22:11.793Z,61.20
2019-05-18T19:24:38.202Z,62.10
2019-05-18T19:27:04.655Z,62.40
2019-05-18T19:29:31.241Z,62.80
2019-05-18T19:31:57.763Z,63.20
2019-05-18T19:34:24.319Z,63.70
2019-05-18T19:36:50.852Z,64.40
2019-05-18T19:39:17.284Z,64.90
2019-05-18T19:41:43.889Z,65.30
2019-05-18T19:44:13.191Z,66.10
2019-05-18T19:46:39.629Z,66.50
2019-05-18T19:49:06.093Z,66.70
2019-05-18T19:51:32.713Z,67.20
2019-05-18T19:53:59.336Z,67.40
2019-05-18T19:56:25.729Z,68.00
2019-05-18T19:58:52.224Z,68.30
2019-05-18T20:01:18.659Z,69.00
2019-05-18T20:03:45.147Z,69.30
2019-05-18T20:06:11.534Z,69.80
2019-05-18T20:08:38.038Z,70.10
2019-05-18T20:11:04.679Z,70.40
2019-05-18T20:13:31.240Z,71.10
2019-05-18T20:15:57.659Z,71.50
2019-05-18T20:18:27.040Z,71.60
2019-05-18T20:20:53.563Z,72.20
2019-05-18T20:23:20.084Z,72.70
2019-05-18T20:25:46.685Z,73.20
2019-05-18T20:28:23.498Z,73.40
2019-05-18T20:30:41.507Z,73.90
2019-05-18T20:33:08.017Z,74.50
2019-05-18T20:35:34.559Z,74.80
2019-05-18T20:38:01.073Z,75.30
2019-05-18T20:40:27.558Z,75.80
2019-05-18T20:42:54.204Z,76.20
2019-05-18T20:45:20.598Z,76.70
2019-05-18T20:47:47.197Z,76.80
2019-05-18T20:50:13.989Z,77.20
2019-05-18T20:52:40.478Z,77.50
2019-05-18T20:55:07.260Z,77.90
2019-05-18T20:57:33.790Z,77.90
2019-05-18T21:00:00.199Z,78.20
2019-05-18T21:02:26.802Z,78.60
2019-05-18T21:04:53.202Z,78.80
2019-05-18T21:07:19.744Z,79.20
2019-05-18T21:09:46.164Z,79.50
2019-05-18T21:12:12.647Z,79.60
2019-05-18T21:14:39.081Z,79.70
2019-05-18T21:17:05.595Z,80.00
2019-05-18T21:19:32.080Z,80.10
2019-05-18T21:21:58.620Z,80.40
2019-05-18T21:24:25.278Z,80.80
2019-05-18T21:26:51.749Z,81.10
2019-05-18T21:29:18.231Z,81.40
2019-05-18T21:31:44.621Z,81.60
2019-05-18T21:34:11.027Z,81.70
2019-05-18T21:36:37.544Z,82.00
2019-05-18T21:39:06.104Z,83.00
2019-05-18T21:41:32.775Z,82.90
2019-05-18T21:43:59.315Z,83.20
2019-05-18T21:46:25.794Z,83.70
2019-05-18T21:48:52.186Z,83.80
2019-05-18T21:51:18.619Z,83.90
2019-05-18T21:53:45.108Z,84.20
2019-05-18T21:56:11.505Z,84.40
2019-05-18T21:58:38.000Z,84.60
2019-05-18T22:01:05.219Z,84.90
2019-05-18T22:03:31.824Z,85.40
2019-05-18T22:05:58.351Z,85.60
2019-05-18T22:08:25.855Z,85.80
2019-05-18T22:10:52.445Z,85.90
2019-05-18T22:13:18.961Z,85.90
2019-05-18T22:15:45.359Z,86.10
2019-05-18T22:18:23.588Z,86.20
2019-05-18T22:20:43.981Z,86.40
2019-05-18T22:23:08.596Z,86.60
2019-05-18T22:25:35.026Z,87.10
2019-05-18T22:28:01.526Z,87.20
2019-05-18T22:30:28.187Z,87.30
2019-05-18T22:32:54.768Z,87.50
2019-05-18T22:35:21.260Z,87.70
2019-05-18T22:37:47.653Z,87.70
2019-05-18T22:40:14.344Z,87.80
2019-05-18T22:42:40.762Z,87.90
2019-05-18T22:45:07.579Z,88.10
2019-05-18T22:47:33.966Z,87.80
2019-05-18T22:50:00.362Z,88.00
2019-05-18T22:52:26.758Z,88.60
2019-05-18T22:54:53.156Z,89.00
2019-05-18T22:57:19.678Z,89.20
2019-05-18T22:59:46.070Z,89.30
2019-05-18T23:02:13.456Z,89.40
2019-05-18T23:04:39.996Z,89.30
2019-05-18T23:07:06.487Z,89.30
2019-05-18T23:09:33.122Z,89.30
2019-05-18T23:11:59.573Z,89.50
2019-05-18T23:14:29.143Z,89.60
2019-05-18T23:16:55.611Z,89.50
2019-05-18T23:19:22.080Z,89.70
2019-05-18T23:21:48.814Z,90.20
2019-05-18T23:24:15.381Z,90.40
2019-05-18T23:26:41.912Z,90.60
2019-05-18T23:29:08.304Z,90.70
2019-05-18T23:31:34.809Z,90.70
2019-05-18T23:34:01.313Z,91.10
2019-05-18T23:36:27.832Z,91.20
2019-05-18T23:38:54.345Z,91.00
2019-05-18T23:41:20.792Z,90.90
2019-05-18T23:43:47.286Z,91.00
2019-05-18T23:46:13.834Z,91.30
2019-05-18T23:48:42.656Z,91.70
2019-05-18T23:51:09.810Z,91.80
2019-05-18T23:53:37.692Z,91.90
2019-05-18T23:56:04.466Z,91.90
2019-05-18T23:58:31.274Z,92.00
